createdAt,value
2023-10-29T00:01:28.264Z,87.92
2023-10-29T00:03:56.359Z,87.66
2023-10-29T00:06:23.262Z,87.24
2023-10-29T00:08:49.972Z,88.23
2023-10-29T00:11:16.781Z,88.07
2023-10-29T00:13:44.139Z,87.53
2023-10-29T00:16:12.397Z,87.79
2023-10-29T00:18:39.832Z,87.01
2023-10-29T00:21:06.752Z,87.42
2023-10-29T00:23:34.193Z,87.83
2023-10-29T00:26:01.171Z,87.83
2023-10-29T00:28:28.576Z,87.43
2023-10-29T00:30:56.278Z,87.33
2023-10-29T00:33:23.434Z,87.66
2023-10-29T00:35:50.113Z,87.38
2023-10-29T00:38:16.846Z,87.43
2023-10-29T00:40:43.487Z,86.94
2023-10-29T00:43:15.172Z,86.54
2023-10-29T00:45:43.121Z,87.46
2023-10-29T00:48:11.552Z,87.12
2023-10-29T00:50:39.128Z,87.09
2023-10-29T00:53:06.417Z,86.10
2023-10-29T00:55:33.235Z,86.61
2023-10-29T00:57:59.835Z,86.95
2023-10-29T01:00:26.504Z,86.26
2023-10-29T01:02:53.161Z,85.77
2023-10-29T01:05:19.947Z,85.72
2023-10-29T01:07:47.710Z,86.81
2023-10-29T01:10:14.603Z,86.25
2023-10-29T01:12:41.144Z,85.44
2023-10-29T01:15:07.944Z,85.76
2023-10-29T01:17:35.713Z,85.46
2023-10-29T01:20:04.801Z,85.08
2023-10-29T01:22:32.810Z,85.06
2023-10-29T01:24:59.494Z,85.18
2023-10-29T01:27:27.909Z,84.65
2023-10-29T01:29:54.447Z,85.76
2023-10-29T01:32:21.138Z,85.18
2023-10-29T01:34:47.822Z,84.80
2023-10-29T01:37:14.451Z,85.11
2023-10-29T01:39:41.027Z,84.91
2023-10-29T01:42:07.749Z,85.42
2023-10-29T01:44:34.233Z,84.91
2023-10-29T01:47:00.792Z,85.62
2023-10-29T01:49:27.681Z,85.53
2023-10-29T01:51:54.632Z,85.48
2023-10-29T01:54:22.622Z,85.71
2023-10-29T01:56:49.391Z,85.91
2023-10-29T01:59:16.295Z,85.62
2023-10-29T02:01:43.564Z,85.54
2023-10-29T02:04:11.185Z,85.49
2023-10-29T02:06:40.863Z,86.15
2023-10-29T02:09:13.450Z,85.64
2023-10-29T02:11:41.046Z,85.60
2023-10-29T02:14:07.977Z,85.62
2023-10-29T02:16:34.882Z,86.05
2023-10-29T02:19:01.539Z,85.51
2023-10-29T02:21:28.370Z,85.79
2023-10-29T02:23:56.371Z,85.92
2023-10-29T02:26:24.297Z,86.27
2023-10-29T02:28:50.978Z,86.00
2023-10-29T02:31:18.518Z,85.96
2023-10-29T02:33:45.138Z,85.70
2023-10-29T02:36:11.894Z,84.91
2023-10-29T02:38:39.779Z,85.57
2023-10-29T02:41:06.463Z,85.97
2023-10-29T02:43:34.083Z,86.31
2023-10-29T02:46:01.383Z,85.54
2023-10-29T02:48:28.439Z,85.29
2023-10-29T02:50:56.400Z,84.36
2023-10-29T02:53:23.196Z,84.82
2023-10-29T02:55:50.560Z,85.60
2023-10-29T02:58:17.072Z,85.37
2023-10-29T03:00:43.758Z,84.73
2023-10-29T03:03:10.495Z,85.47
2023-10-29T03:05:50.252Z,85.54
2023-10-29T03:08:23.023Z,86.70
2023-10-29T03:10:52.803Z,86.11
2023-10-29T03:13:19.382Z,86.42
2023-10-29T03:15:46.335Z,85.54
2023-10-29T03:18:14.516Z,85.62
2023-10-29T03:20:42.070Z,85.75
2023-10-29T03:23:09.092Z,85.65
2023-10-29T03:25:35.659Z,85.45
2023-10-29T03:28:02.198Z,86.03
2023-10-29T03:30:28.799Z,85.16
2023-10-29T03:32:55.436Z,85.30
2023-10-29T03:35:22.025Z,85.36
2023-10-29T03:37:48.572Z,84.59
2023-10-29T03:40:15.111Z,85.41
2023-10-29T03:42:41.787Z,84.59
2023-10-29T03:45:08.645Z,85.76
2023-10-29T03:47:35.212Z,84.57
2023-10-29T03:50:01.780Z,84.78
2023-10-29T03:52:28.259Z,86.23
2023-10-29T03:54:54.834Z,85.69
2023-10-29T03:57:21.684Z,85.48
2023-10-29T03:59:48.996Z,85.24
2023-10-29T04:02:15.567Z,84.74
2023-10-29T04:04:43.939Z,85.47
2023-10-29T04:07:13.055Z,85.75
2023-10-29T04:09:41.134Z,85.24
2023-10-29T04:12:07.877Z,84.64
2023-10-29T04:14:35.290Z,85.10
2023-10-29T04:17:01.852Z,85.74
2023-10-29T04:19:28.398Z,85.32
2023-10-29T04:21:54.890Z,86.40
2023-10-29T04:24:21.492Z,86.56
2023-10-29T04:26:48.085Z,85.51
2023-10-29T04:29:15.897Z,85.85
2023-10-29T04:31:42.487Z,85.80
2023-10-29T04:34:09.952Z,86.01
2023-10-29T04:36:37.568Z,84.37
2023-10-29T04:39:04.939Z,84.69
2023-10-29T04:41:32.655Z,84.83
2023-10-29T04:44:01.906Z,85.77
2023-10-29T04:46:28.784Z,84.99
2023-10-29T04:48:58.397Z,84.66
2023-10-29T04:51:26.079Z,84.17
2023-10-29T04:54:01.343Z,84.15
2023-10-29T04:56:29.323Z,84.37
2023-10-29T04:58:56.531Z,84.76
2023-10-29T05:01:23.941Z,84.49
2023-10-29T05:03:51.410Z,84.20
2023-10-29T05:06:22.671Z,84.54
2023-10-29T05:08:51.213Z,84.98
2023-10-29T05:11:18.680Z,84.62
2023-10-29T05:13:48.699Z,83.94
2023-10-29T05:16:16.392Z,84.14
2023-10-29T05:18:43.841Z,84.57
2023-10-29T05:21:11.539Z,84.14
2023-10-29T05:23:41.992Z,85.07
2023-10-29T05:26:09.165Z,84.31
2023-10-29T05:28:36.267Z,84.77
2023-10-29T05:31:06.625Z,84.68
2023-10-29T05:33:34.537Z,84.79
2023-10-29T05:36:01.614Z,84.20
2023-10-29T05:38:31.665Z,84.31
2023-10-29T05:41:04.743Z,83.98
2023-10-29T05:43:31.935Z,84.27
2023-10-29T05:46:02.458Z,84.57
2023-10-29T05:48:29.982Z,84.69
2023-10-29T05:50:57.253Z,85.04
2023-10-29T05:53:23.859Z,85.80
2023-10-29T05:55:56.772Z,84.52
2023-10-29T05:58:27.564Z,83.86
2023-10-29T06:00:54.322Z,85.39
2023-10-29T06:03:20.930Z,85.42
2023-10-29T06:05:47.826Z,84.94
2023-10-29T06:08:15.027Z,84.39
2023-10-29T06:10:41.626Z,84.30
2023-10-29T06:13:08.165Z,84.61
2023-10-29T06:15:34.728Z,85.26
2023-10-29T06:18:01.590Z,85.07
2023-10-29T06:20:28.470Z,85.85
2023-10-29T06:22:55.022Z,85.67
2023-10-29T06:25:21.707Z,85.94
2023-10-29T06:27:49.553Z,85.91
2023-10-29T06:30:17.753Z,86.72
2023-10-29T06:32:44.727Z,86.58
2023-10-29T06:35:13.169Z,87.35
2023-10-29T06:37:40.327Z,86.82
2023-10-29T06:40:07.758Z,87.11
2023-10-29T06:42:34.391Z,86.60
2023-10-29T06:45:00.957Z,86.90
2023-10-29T06:47:27.628Z,87.12
2023-10-29T06:50:11.808Z,87.41
2023-10-29T06:52:38.870Z,86.95
2023-10-29T06:55:09.994Z,87.04
2023-10-29T06:57:39.876Z,88.04
2023-10-29T07:00:08.781Z,86.61
2023-10-29T07:02:36.666Z,86.69
2023-10-29T07:05:03.733Z,87.45
2023-10-29T07:07:31.002Z,86.99
2023-10-29T07:09:57.745Z,87.38
2023-10-29T07:12:24.372Z,87.41
2023-10-29T07:14:51.075Z,86.75
2023-10-29T07:17:17.645Z,87.35
2023-10-29T07:19:44.305Z,88.05
2023-10-29T07:22:11.038Z,87.26
2023-10-29T07:24:37.655Z,87.67
2023-10-29T07:27:04.532Z,87.29
2023-10-29T07:29:31.242Z,87.24
2023-10-29T07:31:57.921Z,87.20
2023-10-29T07:34:24.522Z,87.83
2023-10-29T07:36:51.140Z,88.14
2023-10-29T07:39:17.883Z,87.23
2023-10-29T07:41:44.561Z,86.95
2023-10-29T07:44:12.751Z,86.98
2023-10-29T07:46:39.291Z,87.42
2023-10-29T07:49:05.858Z,86.91
2023-10-29T07:51:32.531Z,87.55
2023-10-29T07:54:00.833Z,87.00
2023-10-29T07:56:27.910Z,87.21
2023-10-29T07:58:54.811Z,86.72
2023-10-29T08:01:21.541Z,87.43
2023-10-29T08:03:49.763Z,87.57
2023-10-29T08:06:16.824Z,86.53
2023-10-29T08:08:43.787Z,86.27
2023-10-29T08:11:21.202Z,85.88
2023-10-29T08:13:48.586Z,85.82
2023-10-29T08:16:15.216Z,85.38
2023-10-29T08:18:42.730Z,85.93
2023-10-29T08:21:09.767Z,85.83
2023-10-29T08:23:36.575Z,86.33
2023-10-29T08:26:03.436Z,86.01
2023-10-29T08:28:31.000Z,85.98
2023-10-29T08:30:57.725Z,86.04
2023-10-29T08:33:24.391Z,85.87
2023-10-29T08:35:51.143Z,86.21
2023-10-29T08:38:17.740Z,85.33
2023-10-29T08:40:44.393Z,85.15
2023-10-29T08:43:11.150Z,85.73
2023-10-29T08:45:41.517Z,85.40
2023-10-29T08:48:09.204Z,84.87
2023-10-29T08:50:35.938Z,84.58
2023-10-29T08:53:02.645Z,84.76
2023-10-29T08:55:29.288Z,84.75
2023-10-29T08:57:55.844Z,84.07
2023-10-29T09:00:22.696Z,84.33
2023-10-29T09:02:49.507Z,83.95
2023-10-29T09:05:16.365Z,84.35
2023-10-29T09:07:43.065Z,84.25
2023-10-29T09:10:10.137Z,84.68
2023-10-29T09:12:38.132Z,84.67
2023-10-29T09:15:05.378Z,84.57
2023-10-29T09:17:32.004Z,84.73
2023-10-29T09:19:58.585Z,85.04
2023-10-29T09:22:25.339Z,84.57
2023-10-29T09:24:51.878Z,84.39
2023-10-29T09:27:18.410Z,84.66
2023-10-29T09:29:45.235Z,85.10
2023-10-29T09:32:14.048Z,84.78
2023-10-29T09:34:41.307Z,84.85
2023-10-29T09:37:08.248Z,84.60
2023-10-29T09:39:34.860Z,84.20
2023-10-29T09:42:09.272Z,84.71
2023-10-29T09:44:40.704Z,84.35
2023-10-29T09:47:15.385Z,85.47
2023-10-29T09:49:42.824Z,84.83
2023-10-29T09:52:10.277Z,84.70
2023-10-29T09:54:39.132Z,85.39
2023-10-29T09:57:07.348Z,85.14
2023-10-29T09:59:36.130Z,84.21
2023-10-29T10:02:04.032Z,84.33
2023-10-29T10:04:30.825Z,84.42
2023-10-29T10:06:59.434Z,84.24
2023-10-29T10:09:26.063Z,84.97
2023-10-29T10:12:05.851Z,84.49
2023-10-29T10:14:33.277Z,84.23
2023-10-29T10:17:12.797Z,83.58
2023-10-29T10:19:40.778Z,83.13
2023-10-29T10:22:08.103Z,83.85
2023-10-29T10:24:46.872Z,83.55
2023-10-29T10:27:14.982Z,82.98
2023-10-29T10:29:41.559Z,82.35
2023-10-29T10:32:08.196Z,82.08
2023-10-29T10:34:35.528Z,80.98
2023-10-29T10:37:03.748Z,81.01
2023-10-29T10:39:34.957Z,81.12
2023-10-29T10:42:04.041Z,80.98
2023-10-29T10:44:32.285Z,81.38
2023-10-29T10:47:01.424Z,81.94
2023-10-29T10:49:32.115Z,81.93
2023-10-29T10:52:02.304Z,82.27
2023-10-29T10:54:30.610Z,82.63
2023-10-29T10:56:57.674Z,83.07
2023-10-29T10:59:24.571Z,82.98
2023-10-29T11:01:51.870Z,83.19
2023-10-29T11:04:20.226Z,83.21
2023-10-29T11:06:48.006Z,83.35
2023-10-29T11:09:15.632Z,83.88
2023-10-29T11:11:53.182Z,85.22
2023-10-29T11:14:21.024Z,85.33
2023-10-29T11:16:56.484Z,84.74
2023-10-29T11:19:41.116Z,84.60
2023-10-29T11:22:21.467Z,83.46
2023-10-29T11:25:06.573Z,84.65
2023-10-29T11:27:39.087Z,84.59
2023-10-29T11:30:31.107Z,84.91
2023-10-29T11:33:06.801Z,85.77
2023-10-29T11:35:36.928Z,84.69
2023-10-29T11:38:31.066Z,83.25
2023-10-29T11:40:58.962Z,83.90
2023-10-29T11:43:25.724Z,84.93
2023-10-29T11:45:59.703Z,83.67
2023-10-29T11:48:27.212Z,84.00
2023-10-29T11:51:12.112Z,84.59
2023-10-29T11:53:39.604Z,85.34
2023-10-29T11:56:11.098Z,84.96
2023-10-29T11:58:37.760Z,86.25
2023-10-29T12:01:05.402Z,86.91
2023-10-29T12:03:32.317Z,86.28
2023-10-29T12:05:59.314Z,86.37
2023-10-29T12:08:31.331Z,86.71
2023-10-29T12:10:59.333Z,85.89
2023-10-29T12:13:26.061Z,86.46
2023-10-29T12:16:01.467Z,86.31
2023-10-29T12:18:28.093Z,87.22
2023-10-29T12:21:10.537Z,88.82
2023-10-29T12:23:38.375Z,88.17
2023-10-29T12:26:07.312Z,87.52
2023-10-29T12:28:35.908Z,88.76
2023-10-29T12:31:02.739Z,89.14
2023-10-29T12:33:30.740Z,89.38
2023-10-29T12:36:02.217Z,87.91
2023-10-29T12:38:28.915Z,88.32
2023-10-29T12:41:05.860Z,88.67
2023-10-29T12:43:37.057Z,88.25
2023-10-29T12:46:06.213Z,88.13
2023-10-29T12:48:33.282Z,87.72
2023-10-29T12:51:00.007Z,89.53
2023-10-29T12:53:28.168Z,89.34
2023-10-29T12:55:56.707Z,89.37
2023-10-29T12:58:23.487Z,89.65
2023-10-29T13:00:53.016Z,89.22
2023-10-29T13:03:22.154Z,89.60
2023-10-29T13:05:49.459Z,90.40
2023-10-29T13:08:17.955Z,89.80
2023-10-29T13:10:47.057Z,100.00
2023-10-29T13:13:17.466Z,100.00
2023-10-29T13:15:46.164Z,100.00
2023-10-29T13:18:12.711Z,100.00
2023-10-29T13:20:39.747Z,100.00
2023-10-29T13:23:06.352Z,100.00
2023-10-29T13:25:32.873Z,100.00
2023-10-29T13:27:59.681Z,100.00
2023-10-29T13:30:26.741Z,100.00
2023-10-29T13:32:53.313Z,100.00
2023-10-29T13:35:19.912Z,100.00
2023-10-29T13:37:46.518Z,100.00
2023-10-29T13:40:13.425Z,100.00
2023-10-29T13:42:40.192Z,100.00
2023-10-29T13:45:07.339Z,100.00
2023-10-29T13:47:34.082Z,100.00
2023-10-29T13:50:00.743Z,100.00
2023-10-29T13:52:27.277Z,100.00
2023-10-29T13:54:53.845Z,100.00
2023-10-29T13:57:20.426Z,100.00
2023-10-29T13:59:48.197Z,100.00
2023-10-29T14:02:14.786Z,100.00
2023-10-29T14:04:41.317Z,100.00
2023-10-29T14:07:09.916Z,100.00
2023-10-29T14:09:36.578Z,100.00
2023-10-29T14:12:03.450Z,100.00
2023-10-29T14:14:30.265Z,100.00
2023-10-29T14:16:56.979Z,100.00
2023-10-29T14:19:24.454Z,100.00
2023-10-29T14:21:54.067Z,100.00
2023-10-29T14:24:20.918Z,100.00
2023-10-29T14:26:47.563Z,100.00
2023-10-29T14:29:14.189Z,100.00
2023-10-29T14:31:40.853Z,100.00
2023-10-29T14:34:07.895Z,100.00
2023-10-29T14:36:35.097Z,100.00
2023-10-29T14:39:02.009Z,100.00
2023-10-29T14:41:28.593Z,100.00
2023-10-29T14:43:55.135Z,100.00
2023-10-29T14:46:21.733Z,100.00
2023-10-29T14:48:48.248Z,100.00
2023-10-29T14:51:16.053Z,100.00
2023-10-29T14:53:42.648Z,100.00
2023-10-29T14:56:09.162Z,100.00
2023-10-29T14:58:35.678Z,100.00
2023-10-29T15:01:06.103Z,100.00
2023-10-29T15:03:33.277Z,100.00
2023-10-29T15:05:59.936Z,100.00
2023-10-29T15:08:26.935Z,100.00
2023-10-29T15:10:53.810Z,100.00
2023-10-29T15:13:22.732Z,100.00
2023-10-29T15:15:49.516Z,100.00
2023-10-29T15:18:16.511Z,100.00
2023-10-29T15:20:54.508Z,100.00
2023-10-29T15:23:25.066Z,100.00
2023-10-29T15:25:51.564Z,100.00
2023-10-29T15:28:18.101Z,100.00
2023-10-29T15:30:44.629Z,100.00
2023-10-29T15:33:11.349Z,100.00
2023-10-29T15:35:37.993Z,100.00
2023-10-29T15:38:04.713Z,100.00
2023-10-29T15:40:32.931Z,100.00
2023-10-29T15:43:01.338Z,100.00
2023-10-29T15:45:27.913Z,100.00
2023-10-29T15:47:55.233Z,100.00
2023-10-29T15:50:21.902Z,100.00
2023-10-29T15:52:48.481Z,100.00
2023-10-29T15:55:15.345Z,100.00
2023-10-29T15:57:42.349Z,100.00
2023-10-29T16:00:10.008Z,100.00
2023-10-29T16:02:36.813Z,100.00
2023-10-29T16:05:04.940Z,100.00
2023-10-29T16:07:31.526Z,100.00
2023-10-29T16:09:58.070Z,100.00
2023-10-29T16:12:24.578Z,100.00
2023-10-29T16:14:51.990Z,100.00
2023-10-29T16:17:18.582Z,100.00
2023-10-29T16:19:46.424Z,100.00
2023-10-29T16:22:13.236Z,100.00
2023-10-29T16:24:39.760Z,100.00
2023-10-29T16:27:06.470Z,100.00
2023-10-29T16:29:34.411Z,100.00
2023-10-29T16:32:03.143Z,100.00
2023-10-29T16:34:29.878Z,100.00
2023-10-29T16:36:56.558Z,100.00
2023-10-29T16:39:24.622Z,100.00
2023-10-29T16:41:51.559Z,100.00
2023-10-29T16:44:18.099Z,100.00
2023-10-29T16:46:45.036Z,100.00
2023-10-29T16:49:13.763Z,100.00
2023-10-29T16:51:42.671Z,100.00
2023-10-29T16:54:09.275Z,100.00
2023-10-29T16:56:35.866Z,100.00
2023-10-29T16:59:02.457Z,100.00
2023-10-29T17:01:29.148Z,100.00
2023-10-29T17:03:55.790Z,100.00
2023-10-29T17:06:22.464Z,100.00
2023-10-29T17:08:49.819Z,100.00
2023-10-29T17:11:16.579Z,100.00
2023-10-29T17:13:43.174Z,100.00
2023-10-29T17:16:09.759Z,100.00
2023-10-29T17:18:36.405Z,100.00
2023-10-29T17:21:03.273Z,100.00
2023-10-29T17:23:30.128Z,100.00
2023-10-29T17:25:57.724Z,100.00
2023-10-29T17:28:24.488Z,100.00
2023-10-29T17:30:51.098Z,100.00
2023-10-29T17:33:17.775Z,100.00
2023-10-29T17:35:44.347Z,100.00
2023-10-29T17:38:10.942Z,100.00
2023-10-29T17:40:37.463Z,100.00
2023-10-29T17:43:04.051Z,100.00
2023-10-29T17:45:36.503Z,100.00
2023-10-29T17:48:03.347Z,100.00
2023-10-29T17:50:29.905Z,100.00
2023-10-29T17:52:56.737Z,100.00
2023-10-29T17:55:23.238Z,100.00
2023-10-29T17:57:50.348Z,100.00
2023-10-29T18:00:17.174Z,100.00
2023-10-29T18:02:43.983Z,100.00
2023-10-29T18:05:11.920Z,100.00
2023-10-29T18:07:38.807Z,100.00
2023-10-29T18:10:06.622Z,100.00
2023-10-29T18:12:33.576Z,100.00
2023-10-29T18:15:00.501Z,100.00
2023-10-29T18:17:27.912Z,100.00
2023-10-29T18:19:54.575Z,100.00
2023-10-29T18:22:22.760Z,100.00
2023-10-29T18:24:49.513Z,100.00
2023-10-29T18:27:16.461Z,100.00
2023-10-29T18:29:43.340Z,100.00
2023-10-29T18:32:11.156Z,100.00
2023-10-29T18:34:38.498Z,100.00
2023-10-29T18:37:05.105Z,100.00
2023-10-29T18:39:31.743Z,100.00
2023-10-29T18:41:59.621Z,100.00
2023-10-29T18:44:38.562Z,100.00
2023-10-29T18:47:05.328Z,100.00
2023-10-29T18:49:31.975Z,100.00
2023-10-29T18:51:58.606Z,100.00
2023-10-29T18:54:25.554Z,100.00
2023-10-29T18:56:53.518Z,100.00
2023-10-29T18:59:20.816Z,100.00
2023-10-29T19:01:47.459Z,100.00
2023-10-29T19:04:14.622Z,100.00
2023-10-29T19:06:42.888Z,100.00
2023-10-29T19:09:11.229Z,100.00
2023-10-29T19:11:39.037Z,100.00
2023-10-29T19:14:06.201Z,100.00
2023-10-29T19:16:33.383Z,100.00
2023-10-29T19:19:02.101Z,100.00
2023-10-29T19:21:28.935Z,100.00
2023-10-29T19:23:55.761Z,100.00
2023-10-29T19:26:22.465Z,100.00
2023-10-29T19:28:49.018Z,100.00
2023-10-29T19:33:45.161Z,100.00
2023-10-29T19:36:13.254Z,100.00
2023-10-29T19:38:42.103Z,100.00
2023-10-29T19:41:08.761Z,100.00
2023-10-29T19:43:35.364Z,100.00
2023-10-29T19:46:02.864Z,100.00
2023-10-29T19:48:32.405Z,100.00
2023-10-29T19:51:00.602Z,100.00
2023-10-29T19:53:28.458Z,100.00
2023-10-29T19:56:13.433Z,100.00
2023-10-29T19:59:14.294Z,100.00
2023-10-29T20:01:59.464Z,100.00
2023-10-29T20:04:26.461Z,100.00
2023-10-29T20:06:53.086Z,100.00
2023-10-29T20:09:19.710Z,100.00
2023-10-29T20:11:46.352Z,100.00
2023-10-29T20:14:14.589Z,100.00
2023-10-29T20:16:41.560Z,100.00
2023-10-29T20:19:08.027Z,100.00
2023-10-29T20:21:34.722Z,100.00
2023-10-29T20:24:05.116Z,100.00
2023-10-29T20:26:31.669Z,100.00
2023-10-29T20:28:58.214Z,100.00
2023-10-29T20:31:25.146Z,100.00
2023-10-29T20:33:51.860Z,100.00
2023-10-29T20:36:18.667Z,100.00
2023-10-29T20:38:45.364Z,100.00
2023-10-29T20:41:12.038Z,100.00
2023-10-29T20:43:39.230Z,100.00
2023-10-29T20:46:06.164Z,100.00
2023-10-29T20:48:33.558Z,100.00
2023-10-29T20:51:00.369Z,100.00
2023-10-29T20:53:28.551Z,100.00
2023-10-29T20:55:55.276Z,100.00
2023-10-29T20:58:22.088Z,100.00
2023-10-29T21:00:52.783Z,100.00
2023-10-29T21:03:19.884Z,100.00
2023-10-29T21:05:47.247Z,100.00
2023-10-29T21:08:14.855Z,100.00
2023-10-29T21:10:41.412Z,100.00
2023-10-29T21:13:07.968Z,100.00
2023-10-29T21:15:39.485Z,100.00
2023-10-29T21:18:06.113Z,100.00
2023-10-29T21:20:32.744Z,100.00
2023-10-29T21:22:59.273Z,100.00
2023-10-29T21:25:25.980Z,100.00
2023-10-29T21:27:52.527Z,100.00
2023-10-29T21:30:19.209Z,100.00
2023-10-29T21:32:45.840Z,100.00
2023-10-29T21:35:12.436Z,100.00
2023-10-29T21:37:39.137Z,100.00
2023-10-29T21:40:06.062Z,100.00
2023-10-29T21:42:32.758Z,100.00
2023-10-29T21:44:59.353Z,100.00
2023-10-29T21:47:25.987Z,100.00
2023-10-29T21:49:52.515Z,100.00
2023-10-29T21:52:19.060Z,100.00
2023-10-29T21:54:50.929Z,100.00
2023-10-29T21:57:18.477Z,100.00
2023-10-29T21:59:45.336Z,100.00
2023-10-29T22:02:11.968Z,100.00
2023-10-29T22:04:38.870Z,100.00
2023-10-29T22:07:05.528Z,100.00
2023-10-29T22:09:32.213Z,100.00
2023-10-29T22:11:58.870Z,100.00
2023-10-29T22:14:25.382Z,100.00
2023-10-29T22:16:52.026Z,100.00
2023-10-29T22:19:19.766Z,100.00
2023-10-29T22:21:46.733Z,100.00
2023-10-29T22:24:13.321Z,100.00
2023-10-29T22:26:39.827Z,100.00
2023-10-29T22:29:06.385Z,100.00
2023-10-29T22:31:32.980Z,100.00
2023-10-29T22:33:59.777Z,100.00
2023-10-29T22:36:26.431Z,100.00
2023-10-29T22:38:52.994Z,100.00
2023-10-29T22:41:19.556Z,100.00
2023-10-29T22:43:46.084Z,100.00
2023-10-29T22:46:20.464Z,100.00
2023-10-29T22:48:48.476Z,100.00
2023-10-29T22:51:15.494Z,100.00
2023-10-29T22:53:42.325Z,100.00
2023-10-29T22:56:09.089Z,100.00
2023-10-29T22:58:35.597Z,100.00
2023-10-29T23:01:02.200Z,100.00
2023-10-29T23:03:29.270Z,100.00
2023-10-29T23:05:55.995Z,100.00
2023-10-29T23:08:22.793Z,100.00
2023-10-29T23:10:49.311Z,100.00
2023-10-29T23:13:16.310Z,100.00
2023-10-29T23:15:43.313Z,100.00
2023-10-29T23:18:10.507Z,100.00
2023-10-29T23:20:37.483Z,100.00
2023-10-29T23:23:04.432Z,100.00
2023-10-29T23:25:31.027Z,100.00
2023-10-29T23:27:57.536Z,100.00
2023-10-29T23:30:24.139Z,100.00
2023-10-29T23:32:50.746Z,100.00
2023-10-29T23:35:17.421Z,100.00
2023-10-29T23:37:43.957Z,100.00
2023-10-29T23:40:11.232Z,100.00
2023-10-29T23:42:37.823Z,100.00
2023-10-29T23:45:04.914Z,100.00
2023-10-29T23:47:31.527Z,100.00
2023-10-29T23:49:58.070Z,100.00
2023-10-29T23:52:24.627Z,100.00
2023-10-29T23:54:51.267Z,100.00
2023-10-29T23:57:18.006Z,100.00
2023-10-29T23:59:44.591Z,100.00
